sensor_id;sensor_type;location;lat;lon;timestamp;temperature;humidity
26336;DHT22;14047;50.936;4.654;2023-08-21T00:01:48;21.30;99.90
26336;DHT22;14047;50.936;4.654;2023-08-21T00:04:14;21.30;99.90
26336;DHT22;14047;50.936;4.654;2023-08-21T00:06:40;21.20;99.90
26336;DHT22;14047;50.936;4.654;2023-08-21T00:09:06;21.10;99.90
26336;DHT22;14047;50.936;4.654;2023-08-21T00:11:32;21.10;99.90
26336;DHT22;14047;50.936;4.654;2023-08-21T00:13:58;21.10;99.90
26336;DHT22;14047;50.936;4.654;2023-08-21T00:16:24;21.20;99.90
26336;DHT22;14047;50.936;4.654;2023-08-21T00:18:52;21.20;99.90
26336;DHT22;14047;50.936;4.654;2023-08-21T00:21:19;21.30;99.90
26336;DHT22;14047;50.936;4.654;2023-08-21T00:23:46;21.30;99.90
26336;DHT22;14047;50.936;4.654;2023-08-21T00:26:12;21.30;99.90
26336;DHT22;14047;50.936;4.654;2023-08-21T00:28:38;21.30;99.90
26336;DHT22;14047;50.936;4.654;2023-08-21T00:31:05;21.30;99.90
26336;DHT22;14047;50.936;4.654;2023-08-21T00:33:32;21.40;99.90
26336;DHT22;14047;50.936;4.654;2023-08-21T00:35:58;21.50;99.90
26336;DHT22;14047;50.936;4.654;2023-08-21T00:38:25;21.50;99.90
26336;DHT22;14047;50.936;4.654;2023-08-21T00:40:52;21.60;99.90
26336;DHT22;14047;50.936;4.654;2023-08-21T00:43:18;21.60;99.90
26336;DHT22;14047;50.936;4.654;2023-08-21T00:45:44;21.60;99.90
26336;DHT22;14047;50.936;4.654;2023-08-21T00:48:13;21.60;99.90
26336;DHT22;14047;50.936;4.654;2023-08-21T00:50:41;21.60;99.90
26336;DHT22;14047;50.936;4.654;2023-08-21T00:53:07;21.70;99.90
26336;DHT22;14047;50.936;4.654;2023-08-21T00:55:34;21.80;99.90
26336;DHT22;14047;50.936;4.654;2023-08-21T00:58:01;21.80;99.90
26336;DHT22;14047;50.936;4.654;2023-08-21T01:00:29;21.80;99.90
26336;DHT22;14047;50.936;4.654;2023-08-21T01:02:56;21.80;99.90
26336;DHT22;14047;50.936;4.654;2023-08-21T01:05:23;21.80;99.90
26336;DHT22;14047;50.936;4.654;2023-08-21T01:08:03;21.90;99.90
26336;DHT22;14047;50.936;4.654;2023-08-21T01:10:39;21.80;99.90
26336;DHT22;14047;50.936;4.654;2023-08-21T01:15:51;21.50;99.90
26336;DHT22;14047;50.936;4.654;2023-08-21T01:18:19;21.40;99.90
26336;DHT22;14047;50.936;4.654;2023-08-21T01:20:47;21.40;99.90
26336;DHT22;14047;50.936;4.654;2023-08-21T01:23:35;21.30;99.90
26336;DHT22;14047;50.936;4.654;2023-08-21T01:26:02;21.10;99.90
26336;DHT22;14047;50.936;4.654;2023-08-21T01:28:31;21.10;99.90
26336;DHT22;14047;50.936;4.654;2023-08-21T01:31:08;21.00;99.90
26336;DHT22;14047;50.936;4.654;2023-08-21T01:33:44;21.00;99.90
26336;DHT22;14047;50.936;4.654;2023-08-21T01:36:11;20.90;99.90
26336;DHT22;14047;50.936;4.654;2023-08-21T01:38:37;20.90;99.90
26336;DHT22;14047;50.936;4.654;2023-08-21T01:41:04;20.90;99.90
26336;DHT22;14047;50.936;4.654;2023-08-21T01:43:30;20.80;99.90
26336;DHT22;14047;50.936;4.654;2023-08-21T01:45:56;20.70;99.90
26336;DHT22;14047;50.936;4.654;2023-08-21T01:48:22;20.60;99.90
26336;DHT22;14047;50.936;4.654;2023-08-21T01:50:48;20.60;99.90
26336;DHT22;14047;50.936;4.654;2023-08-21T01:53:15;20.50;99.90
26336;DHT22;14047;50.936;4.654;2023-08-21T01:55:41;20.50;99.90
26336;DHT22;14047;50.936;4.654;2023-08-21T01:58:06;20.50;99.90
26336;DHT22;14047;50.936;4.654;2023-08-21T02:00:32;20.40;99.90
26336;DHT22;14047;50.936;4.654;2023-08-21T02:02:58;20.40;99.90
26336;DHT22;14047;50.936;4.654;2023-08-21T02:05:24;20.30;99.90
26336;DHT22;14047;50.936;4.654;2023-08-21T02:07:50;20.10;99.90
26336;DHT22;14047;50.936;4.654;2023-08-21T02:10:16;20.20;99.90
26336;DHT22;14047;50.936;4.654;2023-08-21T02:12:42;20.20;99.90
26336;DHT22;14047;50.936;4.654;2023-08-21T02:15:09;20.30;99.90
26336;DHT22;14047;50.936;4.654;2023-08-21T02:17:36;20.30;99.90
26336;DHT22;14047;50.936;4.654;2023-08-21T02:20:02;20.40;99.90
26336;DHT22;14047;50.936;4.654;2023-08-21T02:22:29;20.40;99.90
26336;DHT22;14047;50.936;4.654;2023-08-21T02:24:55;20.40;99.90
26336;DHT22;14047;50.936;4.654;2023-08-21T02:27:21;20.40;99.90
26336;DHT22;14047;50.936;4.654;2023-08-21T02:29:47;20.40;99.90
26336;DHT22;14047;50.936;4.654;2023-08-21T02:32:13;20.30;99.90
26336;DHT22;14047;50.936;4.654;2023-08-21T02:34:39;20.30;99.90
26336;DHT22;14047;50.936;4.654;2023-08-21T02:37:05;20.30;99.90
26336;DHT22;14047;50.936;4.654;2023-08-21T02:39:31;20.20;99.90
26336;DHT22;14047;50.936;4.654;2023-08-21T02:41:57;20.20;99.90
26336;DHT22;14047;50.936;4.654;2023-08-21T02:44:23;20.20;99.90
26336;DHT22;14047;50.936;4.654;2023-08-21T02:46:49;20.10;99.90
26336;DHT22;14047;50.936;4.654;2023-08-21T02:49:15;20.00;99.90
26336;DHT22;14047;50.936;4.654;2023-08-21T02:51:41;19.90;99.90
26336;DHT22;14047;50.936;4.654;2023-08-21T02:54:07;19.80;99.90
26336;DHT22;14047;50.936;4.654;2023-08-21T02:56:33;19.60;99.90
26336;DHT22;14047;50.936;4.654;2023-08-21T02:58:59;19.60;99.90
26336;DHT22;14047;50.936;4.654;2023-08-21T03:01:25;19.40;99.90
26336;DHT22;14047;50.936;4.654;2023-08-21T03:03:51;19.40;99.90
26336;DHT22;14047;50.936;4.654;2023-08-21T03:06:17;19.40;99.90
26336;DHT22;14047;50.936;4.654;2023-08-21T03:08:43;19.50;99.90
26336;DHT22;14047;50.936;4.654;2023-08-21T03:11:09;19.50;99.90
26336;DHT22;14047;50.936;4.654;2023-08-21T03:13:35;19.40;99.90
26336;DHT22;14047;50.936;4.654;2023-08-21T03:16:02;19.40;99.90
26336;DHT22;14047;50.936;4.654;2023-08-21T03:18:31;19.50;99.90
26336;DHT22;14047;50.936;4.654;2023-08-21T03:20:57;19.50;99.90
26336;DHT22;14047;50.936;4.654;2023-08-21T03:23:23;19.40;99.90
26336;DHT22;14047;50.936;4.654;2023-08-21T03:25:53;19.40;99.90
26336;DHT22;14047;50.936;4.654;2023-08-21T03:28:19;19.30;99.90
26336;DHT22;14047;50.936;4.654;2023-08-21T03:30:45;19.20;99.90
26336;DHT22;14047;50.936;4.654;2023-08-21T03:33:11;19.30;99.90
26336;DHT22;14047;50.936;4.654;2023-08-21T03:35:37;19.30;99.90
26336;DHT22;14047;50.936;4.654;2023-08-21T03:38:03;19.30;99.90
26336;DHT22;14047;50.936;4.654;2023-08-21T03:40:39;19.30;99.90
26336;DHT22;14047;50.936;4.654;2023-08-21T03:43:05;19.30;99.90
26336;DHT22;14047;50.936;4.654;2023-08-21T03:45:31;19.30;99.90
26336;DHT22;14047;50.936;4.654;2023-08-21T03:47:57;19.30;99.90
26336;DHT22;14047;50.936;4.654;2023-08-21T03:50:23;19.30;99.90
26336;DHT22;14047;50.936;4.654;2023-08-21T03:52:49;19.30;99.90
26336;DHT22;14047;50.936;4.654;2023-08-21T03:55:15;19.30;99.90
26336;DHT22;14047;50.936;4.654;2023-08-21T03:57:42;19.20;99.90
26336;DHT22;14047;50.936;4.654;2023-08-21T04:00:08;19.20;99.90
26336;DHT22;14047;50.936;4.654;2023-08-21T04:02:41;19.30;99.90
26336;DHT22;14047;50.936;4.654;2023-08-21T04:05:07;19.20;99.90
26336;DHT22;14047;50.936;4.654;2023-08-21T04:07:33;19.20;99.90
26336;DHT22;14047;50.936;4.654;2023-08-21T04:10:00;19.10;99.90
26336;DHT22;14047;50.936;4.654;2023-08-21T04:12:26;19.10;99.90
26336;DHT22;14047;50.936;4.654;2023-08-21T04:14:52;19.00;99.90
26336;DHT22;14047;50.936;4.654;2023-08-21T04:17:22;18.90;99.90
26336;DHT22;14047;50.936;4.654;2023-08-21T04:19:52;18.90;99.90
26336;DHT22;14047;50.936;4.654;2023-08-21T04:22:18;18.80;99.90
26336;DHT22;14047;50.936;4.654;2023-08-21T04:24:44;18.70;99.90
26336;DHT22;14047;50.936;4.654;2023-08-21T04:27:10;18.70;99.90
26336;DHT22;14047;50.936;4.654;2023-08-21T04:29:37;18.80;99.90
26336;DHT22;14047;50.936;4.654;2023-08-21T04:32:05;18.70;99.90
26336;DHT22;14047;50.936;4.654;2023-08-21T04:34:32;18.70;99.90
26336;DHT22;14047;50.936;4.654;2023-08-21T04:36:58;18.70;99.90
26336;DHT22;14047;50.936;4.654;2023-08-21T04:39:25;18.80;99.90
26336;DHT22;14047;50.936;4.654;2023-08-21T04:41:52;18.80;99.90
26336;DHT22;14047;50.936;4.654;2023-08-21T04:44:19;18.80;99.90
26336;DHT22;14047;50.936;4.654;2023-08-21T04:46:48;18.70;99.90
26336;DHT22;14047;50.936;4.654;2023-08-21T04:49:14;18.70;99.90
26336;DHT22;14047;50.936;4.654;2023-08-21T04:51:40;18.70;99.90
26336;DHT22;14047;50.936;4.654;2023-08-21T04:54:06;18.60;99.90
26336;DHT22;14047;50.936;4.654;2023-08-21T04:56:33;18.60;99.90
26336;DHT22;14047;50.936;4.654;2023-08-21T04:58:59;18.60;99.90
26336;DHT22;14047;50.936;4.654;2023-08-21T05:01:27;18.60;99.90
26336;DHT22;14047;50.936;4.654;2023-08-21T05:03:53;18.70;99.90
26336;DHT22;14047;50.936;4.654;2023-08-21T05:06:20;18.70;99.90
26336;DHT22;14047;50.936;4.654;2023-08-21T05:08:46;18.70;99.90
26336;DHT22;14047;50.936;4.654;2023-08-21T05:11:12;18.80;99.90
26336;DHT22;14047;50.936;4.654;2023-08-21T05:13:41;18.80;99.90
26336;DHT22;14047;50.936;4.654;2023-08-21T05:16:10;18.70;99.90
26336;DHT22;14047;50.936;4.654;2023-08-21T05:18:38;18.80;99.90
26336;DHT22;14047;50.936;4.654;2023-08-21T05:21:04;18.80;99.90
26336;DHT22;14047;50.936;4.654;2023-08-21T05:23:30;18.90;99.90
26336;DHT22;14047;50.936;4.654;2023-08-21T05:26:02;19.00;99.90
26336;DHT22;14047;50.936;4.654;2023-08-21T05:28:28;19.00;99.90
26336;DHT22;14047;50.936;4.654;2023-08-21T05:30:54;19.10;99.90
26336;DHT22;14047;50.936;4.654;2023-08-21T05:33:20;19.20;99.90
26336;DHT22;14047;50.936;4.654;2023-08-21T05:35:49;19.20;99.90
26336;DHT22;14047;50.936;4.654;2023-08-21T05:38:15;19.30;99.90
26336;DHT22;14047;50.936;4.654;2023-08-21T05:40:41;19.40;99.90
26336;DHT22;14047;50.936;4.654;2023-08-21T05:43:10;19.40;99.90
26336;DHT22;14047;50.936;4.654;2023-08-21T05:45:39;19.50;99.90
26336;DHT22;14047;50.936;4.654;2023-08-21T05:48:05;19.50;99.90
26336;DHT22;14047;50.936;4.654;2023-08-21T05:50:31;19.40;99.90
26336;DHT22;14047;50.936;4.654;2023-08-21T05:52:57;19.50;99.90
26336;DHT22;14047;50.936;4.654;2023-08-21T05:55:24;19.50;99.90
26336;DHT22;14047;50.936;4.654;2023-08-21T05:57:51;19.60;99.90
26336;DHT22;14047;50.936;4.654;2023-08-21T06:00:19;19.70;99.90
26336;DHT22;14047;50.936;4.654;2023-08-21T06:02:45;19.80;99.90
26336;DHT22;14047;50.936;4.654;2023-08-21T06:05:22;19.80;99.90
26336;DHT22;14047;50.936;4.654;2023-08-21T06:07:51;19.90;99.90
26336;DHT22;14047;50.936;4.654;2023-08-21T06:10:18;20.00;99.90
26336;DHT22;14047;50.936;4.654;2023-08-21T06:12:44;20.10;99.90
26336;DHT22;14047;50.936;4.654;2023-08-21T06:15:10;20.20;99.90
26336;DHT22;14047;50.936;4.654;2023-08-21T06:17:38;20.20;99.90
26336;DHT22;14047;50.936;4.654;2023-08-21T06:20:05;20.30;99.90
26336;DHT22;14047;50.936;4.654;2023-08-21T06:22:32;20.40;99.90
26336;DHT22;14047;50.936;4.654;2023-08-21T06:24:58;20.50;99.90
26336;DHT22;14047;50.936;4.654;2023-08-21T06:27:24;20.70;99.90
26336;DHT22;14047;50.936;4.654;2023-08-21T06:29:50;20.70;99.90
26336;DHT22;14047;50.936;4.654;2023-08-21T06:32:16;20.70;99.90
26336;DHT22;14047;50.936;4.654;2023-08-21T06:34:43;20.60;99.90
26336;DHT22;14047;50.936;4.654;2023-08-21T06:37:10;20.50;99.90
26336;DHT22;14047;50.936;4.654;2023-08-21T06:39:36;20.50;99.90
26336;DHT22;14047;50.936;4.654;2023-08-21T06:42:02;20.60;99.90
26336;DHT22;14047;50.936;4.654;2023-08-21T06:44:36;20.60;99.90
26336;DHT22;14047;50.936;4.654;2023-08-21T06:47:02;20.70;99.90
26336;DHT22;14047;50.936;4.654;2023-08-21T06:49:28;20.70;99.90
26336;DHT22;14047;50.936;4.654;2023-08-21T06:51:54;20.70;99.90
26336;DHT22;14047;50.936;4.654;2023-08-21T06:54:20;20.80;99.90
26336;DHT22;14047;50.936;4.654;2023-08-21T06:56:46;20.90;99.90
26336;DHT22;14047;50.936;4.654;2023-08-21T06:59:12;21.00;99.90
26336;DHT22;14047;50.936;4.654;2023-08-21T07:01:38;21.00;99.90
26336;DHT22;14047;50.936;4.654;2023-08-21T07:04:04;21.10;99.90
26336;DHT22;14047;50.936;4.654;2023-08-21T07:06:30;21.10;99.90
26336;DHT22;14047;50.936;4.654;2023-08-21T07:08:57;21.20;99.90
26336;DHT22;14047;50.936;4.654;2023-08-21T07:11:23;21.30;99.90
26336;DHT22;14047;50.936;4.654;2023-08-21T07:13:49;21.30;99.90
26336;DHT22;14047;50.936;4.654;2023-08-21T07:16:15;21.30;99.90
26336;DHT22;14047;50.936;4.654;2023-08-21T07:18:41;21.50;99.90
26336;DHT22;14047;50.936;4.654;2023-08-21T07:21:07;21.60;99.90
26336;DHT22;14047;50.936;4.654;2023-08-21T07:23:33;21.70;99.90
26336;DHT22;14047;50.936;4.654;2023-08-21T07:26:00;21.80;99.90
26336;DHT22;14047;50.936;4.654;2023-08-21T07:28:26;21.80;99.90
26336;DHT22;14047;50.936;4.654;2023-08-21T07:30:57;21.80;99.90
26336;DHT22;14047;50.936;4.654;2023-08-21T07:33:24;22.00;99.90
26336;DHT22;14047;50.936;4.654;2023-08-21T07:36:06;22.00;99.90
26336;DHT22;14047;50.936;4.654;2023-08-21T07:38:32;22.10;99.90
26336;DHT22;14047;50.936;4.654;2023-08-21T07:41:09;22.00;99.90
26336;DHT22;14047;50.936;4.654;2023-08-21T07:43:40;22.00;99.90
26336;DHT22;14047;50.936;4.654;2023-08-21T07:46:08;22.10;99.90
26336;DHT22;14047;50.936;4.654;2023-08-21T07:48:39;22.20;99.90
26336;DHT22;14047;50.936;4.654;2023-08-21T07:51:05;22.40;99.90
26336;DHT22;14047;50.936;4.654;2023-08-21T07:53:31;22.50;99.90
26336;DHT22;14047;50.936;4.654;2023-08-21T07:56:02;22.60;99.90
26336;DHT22;14047;50.936;4.654;2023-08-21T07:58:29;22.70;99.90
26336;DHT22;14047;50.936;4.654;2023-08-21T08:00:56;22.70;99.90
26336;DHT22;14047;50.936;4.654;2023-08-21T08:03:22;22.80;99.90
26336;DHT22;14047;50.936;4.654;2023-08-21T08:05:48;22.90;99.90
26336;DHT22;14047;50.936;4.654;2023-08-21T08:08:17;22.90;99.90
26336;DHT22;14047;50.936;4.654;2023-08-21T08:10:43;23.00;99.90
26336;DHT22;14047;50.936;4.654;2023-08-21T08:13:10;22.90;99.90
26336;DHT22;14047;50.936;4.654;2023-08-21T08:15:36;23.10;99.90
26336;DHT22;14047;50.936;4.654;2023-08-21T08:18:02;23.30;99.90
26336;DHT22;14047;50.936;4.654;2023-08-21T08:20:29;23.40;99.90
26336;DHT22;14047;50.936;4.654;2023-08-21T08:22:55;23.50;99.90
26336;DHT22;14047;50.936;4.654;2023-08-21T08:25:22;23.40;99.90
26336;DHT22;14047;50.936;4.654;2023-08-21T08:27:48;23.40;99.90
26336;DHT22;14047;50.936;4.654;2023-08-21T08:30:15;23.40;99.90
26336;DHT22;14047;50.936;4.654;2023-08-21T08:32:44;23.50;99.90
26336;DHT22;14047;50.936;4.654;2023-08-21T08:35:14;23.50;99.90
26336;DHT22;14047;50.936;4.654;2023-08-21T08:37:43;23.50;99.90
26336;DHT22;14047;50.936;4.654;2023-08-21T08:40:11;23.50;99.90
26336;DHT22;14047;50.936;4.654;2023-08-21T08:42:38;23.60;99.90
26336;DHT22;14047;50.936;4.654;2023-08-21T08:45:05;23.80;99.90
26336;DHT22;14047;50.936;4.654;2023-08-21T08:47:32;23.90;99.90
26336;DHT22;14047;50.936;4.654;2023-08-21T08:50:05;23.90;99.90
26336;DHT22;14047;50.936;4.654;2023-08-21T08:52:37;24.10;99.90
26336;DHT22;14047;50.936;4.654;2023-08-21T08:55:03;24.10;99.90
26336;DHT22;14047;50.936;4.654;2023-08-21T08:57:31;24.00;99.90
26336;DHT22;14047;50.936;4.654;2023-08-21T08:59:57;24.10;99.90
26336;DHT22;14047;50.936;4.654;2023-08-21T09:02:27;24.30;99.90
26336;DHT22;14047;50.936;4.654;2023-08-21T09:04:53;24.50;99.90
26336;DHT22;14047;50.936;4.654;2023-08-21T09:07:20;24.70;99.90
26336;DHT22;14047;50.936;4.654;2023-08-21T09:09:48;24.90;99.90
26336;DHT22;14047;50.936;4.654;2023-08-21T09:12:16;25.10;99.90
26336;DHT22;14047;50.936;4.654;2023-08-21T09:14:43;25.30;99.90
26336;DHT22;14047;50.936;4.654;2023-08-21T09:17:10;25.60;99.90
26336;DHT22;14047;50.936;4.654;2023-08-21T09:19:37;25.70;99.90
26336;DHT22;14047;50.936;4.654;2023-08-21T09:22:16;25.90;99.90
26336;DHT22;14047;50.936;4.654;2023-08-21T09:25:02;25.90;99.90
26336;DHT22;14047;50.936;4.654;2023-08-21T09:27:38;26.00;99.90
26336;DHT22;14047;50.936;4.654;2023-08-21T09:30:05;26.00;99.90
26336;DHT22;14047;50.936;4.654;2023-08-21T09:32:55;25.90;99.90
26336;DHT22;14047;50.936;4.654;2023-08-21T09:35:22;25.90;99.90
26336;DHT22;14047;50.936;4.654;2023-08-21T09:37:49;26.00;99.90
26336;DHT22;14047;50.936;4.654;2023-08-21T09:40:15;25.70;99.90
26336;DHT22;14047;50.936;4.654;2023-08-21T09:42:42;25.40;99.90
26336;DHT22;14047;50.936;4.654;2023-08-21T09:45:08;25.50;99.90
26336;DHT22;14047;50.936;4.654;2023-08-21T09:47:35;25.40;99.90
26336;DHT22;14047;50.936;4.654;2023-08-21T09:50:02;25.50;99.90
26336;DHT22;14047;50.936;4.654;2023-08-21T09:52:28;25.50;99.90
26336;DHT22;14047;50.936;4.654;2023-08-21T09:55:16;25.60;99.90
26336;DHT22;14047;50.936;4.654;2023-08-21T09:57:44;25.70;99.90
26336;DHT22;14047;50.936;4.654;2023-08-21T10:00:11;25.80;99.90
26336;DHT22;14047;50.936;4.654;2023-08-21T10:02:50;25.70;99.90
26336;DHT22;14047;50.936;4.654;2023-08-21T10:05:18;25.80;99.90
26336;DHT22;14047;50.936;4.654;2023-08-21T10:07:45;26.00;99.90
26336;DHT22;14047;50.936;4.654;2023-08-21T10:10:13;26.20;99.90
26336;DHT22;14047;50.936;4.654;2023-08-21T10:12:40;26.30;99.90
26336;DHT22;14047;50.936;4.654;2023-08-21T10:15:09;26.30;99.90
26336;DHT22;14047;50.936;4.654;2023-08-21T10:17:36;26.30;99.90
26336;DHT22;14047;50.936;4.654;2023-08-21T10:20:07;26.40;99.90
26336;DHT22;14047;50.936;4.654;2023-08-21T10:22:43;26.30;99.90
26336;DHT22;14047;50.936;4.654;2023-08-21T10:25:19;26.30;99.90
26336;DHT22;14047;50.936;4.654;2023-08-21T10:27:53;26.50;99.90
26336;DHT22;14047;50.936;4.654;2023-08-21T10:30:27;26.30;99.90
26336;DHT22;14047;50.936;4.654;2023-08-21T10:32:58;25.90;99.90
26336;DHT22;14047;50.936;4.654;2023-08-21T10:35:28;25.50;99.90
26336;DHT22;14047;50.936;4.654;2023-08-21T10:38:11;25.50;99.90
26336;DHT22;14047;50.936;4.654;2023-08-21T10:41:04;25.30;99.90
26336;DHT22;14047;50.936;4.654;2023-08-21T10:43:41;25.40;99.90
26336;DHT22;14047;50.936;4.654;2023-08-21T10:46:12;25.50;99.90
26336;DHT22;14047;50.936;4.654;2023-08-21T10:48:39;25.90;99.90
26336;DHT22;14047;50.936;4.654;2023-08-21T10:51:07;26.20;99.90
26336;DHT22;14047;50.936;4.654;2023-08-21T10:53:34;26.30;99.90
26336;DHT22;14047;50.936;4.654;2023-08-21T10:56:02;26.50;99.90
26336;DHT22;14047;50.936;4.654;2023-08-21T10:58:35;26.60;99.90
26336;DHT22;14047;50.936;4.654;2023-08-21T11:01:01;26.70;99.90
26336;DHT22;14047;50.936;4.654;2023-08-21T11:03:27;26.60;99.90
26336;DHT22;14047;50.936;4.654;2023-08-21T11:06:07;26.40;99.90
26336;DHT22;14047;50.936;4.654;2023-08-21T11:08:35;26.40;99.90
26336;DHT22;14047;50.936;4.654;2023-08-21T11:11:05;26.60;99.90
26336;DHT22;14047;50.936;4.654;2023-08-21T11:13:32;26.80;99.90
26336;DHT22;14047;50.936;4.654;2023-08-21T11:16:03;26.30;99.90
26336;DHT22;14047;50.936;4.654;2023-08-21T11:18:34;26.60;99.90
26336;DHT22;14047;50.936;4.654;2023-08-21T11:21:09;26.70;99.90
26336;DHT22;14047;50.936;4.654;2023-08-21T11:23:40;26.80;99.90
26336;DHT22;14047;50.936;4.654;2023-08-21T11:26:10;27.10;99.90
26336;DHT22;14047;50.936;4.654;2023-08-21T11:28:38;26.80;99.90
26336;DHT22;14047;50.936;4.654;2023-08-21T11:31:06;26.90;99.90
26336;DHT22;14047;50.936;4.654;2023-08-21T11:33:32;27.00;99.90
26336;DHT22;14047;50.936;4.654;2023-08-21T11:35:59;26.90;99.90
26336;DHT22;14047;50.936;4.654;2023-08-21T11:38:26;27.00;99.90
26336;DHT22;14047;50.936;4.654;2023-08-21T11:41:01;26.70;99.90
26336;DHT22;14047;50.936;4.654;2023-08-21T11:43:38;26.80;99.90
26336;DHT22;14047;50.936;4.654;2023-08-21T11:46:06;26.80;99.90
26336;DHT22;14047;50.936;4.654;2023-08-21T11:48:33;26.90;99.90
26336;DHT22;14047;50.936;4.654;2023-08-21T11:50:59;27.20;99.90
26336;DHT22;14047;50.936;4.654;2023-08-21T11:53:37;27.40;99.90
26336;DHT22;14047;50.936;4.654;2023-08-21T11:56:10;27.50;99.90
26336;DHT22;14047;50.936;4.654;2023-08-21T11:58:40;27.50;99.90
26336;DHT22;14047;50.936;4.654;2023-08-21T12:01:07;27.50;99.90
26336;DHT22;14047;50.936;4.654;2023-08-21T12:03:36;27.70;99.90
26336;DHT22;14047;50.936;4.654;2023-08-21T12:06:11;28.00;99.90
26336;DHT22;14047;50.936;4.654;2023-08-21T12:08:38;28.20;99.90
26336;DHT22;14047;50.936;4.654;2023-08-21T12:11:05;28.30;99.90
26336;DHT22;14047;50.936;4.654;2023-08-21T12:13:31;28.40;99.90
26336;DHT22;14047;50.936;4.654;2023-08-21T12:16:00;28.30;99.90
26336;DHT22;14047;50.936;4.654;2023-08-21T12:18:26;28.30;99.90
26336;DHT22;14047;50.936;4.654;2023-08-21T12:20:52;28.30;99.90
26336;DHT22;14047;50.936;4.654;2023-08-21T12:23:19;28.30;99.90
26336;DHT22;14047;50.936;4.654;2023-08-21T12:25:45;28.20;99.90
26336;DHT22;14047;50.936;4.654;2023-08-21T12:28:11;27.90;99.90
26336;DHT22;14047;50.936;4.654;2023-08-21T12:30:38;27.80;99.90
26336;DHT22;14047;50.936;4.654;2023-08-21T12:33:04;27.40;99.90
26336;DHT22;14047;50.936;4.654;2023-08-21T12:35:33;27.40;99.90
26336;DHT22;14047;50.936;4.654;2023-08-21T12:38:11;27.60;99.90
26336;DHT22;14047;50.936;4.654;2023-08-21T12:40:39;27.80;99.90
26336;DHT22;14047;50.936;4.654;2023-08-21T12:43:06;28.10;99.90
26336;DHT22;14047;50.936;4.654;2023-08-21T12:45:34;28.20;99.90
26336;DHT22;14047;50.936;4.654;2023-08-21T12:48:00;28.50;99.90
26336;DHT22;14047;50.936;4.654;2023-08-21T12:50:27;28.80;99.90
26336;DHT22;14047;50.936;4.654;2023-08-21T12:52:53;28.90;99.90
26336;DHT22;14047;50.936;4.654;2023-08-21T12:55:19;29.00;99.90
26336;DHT22;14047;50.936;4.654;2023-08-21T12:57:45;29.10;99.90
26336;DHT22;14047;50.936;4.654;2023-08-21T13:00:12;28.80;99.90
26336;DHT22;14047;50.936;4.654;2023-08-21T13:02:40;28.90;99.90
26336;DHT22;14047;50.936;4.654;2023-08-21T13:05:06;28.60;99.90
26336;DHT22;14047;50.936;4.654;2023-08-21T13:07:32;28.30;99.90
26336;DHT22;14047;50.936;4.654;2023-08-21T13:09:59;28.00;99.90
26336;DHT22;14047;50.936;4.654;2023-08-21T13:12:25;27.90;99.90
26336;DHT22;14047;50.936;4.654;2023-08-21T13:14:51;28.40;99.90
26336;DHT22;14047;50.936;4.654;2023-08-21T13:17:17;28.80;99.90
26336;DHT22;14047;50.936;4.654;2023-08-21T13:19:43;28.90;99.90
26336;DHT22;14047;50.936;4.654;2023-08-21T13:22:09;29.30;99.90
26336;DHT22;14047;50.936;4.654;2023-08-21T13:24:35;29.60;99.90
26336;DHT22;14047;50.936;4.654;2023-08-21T13:27:02;29.60;99.90
26336;DHT22;14047;50.936;4.654;2023-08-21T13:29:28;29.80;99.90
26336;DHT22;14047;50.936;4.654;2023-08-21T13:31:54;30.00;99.90
26336;DHT22;14047;50.936;4.654;2023-08-21T13:34:20;30.00;99.90
26336;DHT22;14047;50.936;4.654;2023-08-21T13:36:46;29.70;99.90
26336;DHT22;14047;50.936;4.654;2023-08-21T13:39:12;29.80;99.90
26336;DHT22;14047;50.936;4.654;2023-08-21T13:41:41;29.80;99.90
26336;DHT22;14047;50.936;4.654;2023-08-21T13:44:07;29.80;99.90
26336;DHT22;14047;50.936;4.654;2023-08-21T13:46:34;29.90;99.90
26336;DHT22;14047;50.936;4.654;2023-08-21T13:49:00;29.40;99.90
26336;DHT22;14047;50.936;4.654;2023-08-21T13:51:26;29.20;99.90
26336;DHT22;14047;50.936;4.654;2023-08-21T13:53:52;29.40;99.90
26336;DHT22;14047;50.936;4.654;2023-08-21T13:56:18;29.10;99.90
26336;DHT22;14047;50.936;4.654;2023-08-21T13:58:44;29.10;99.90
26336;DHT22;14047;50.936;4.654;2023-08-21T14:01:10;29.30;99.90
26336;DHT22;14047;50.936;4.654;2023-08-21T14:03:36;29.40;99.90
26336;DHT22;14047;50.936;4.654;2023-08-21T14:06:02;29.60;99.90
26336;DHT22;14047;50.936;4.654;2023-08-21T14:08:28;29.30;99.90
26336;DHT22;14047;50.936;4.654;2023-08-21T14:10:55;29.00;99.90
26336;DHT22;14047;50.936;4.654;2023-08-21T14:13:21;29.30;99.90
26336;DHT22;14047;50.936;4.654;2023-08-21T14:15:47;29.60;99.90
26336;DHT22;14047;50.936;4.654;2023-08-21T14:18:13;29.80;99.90
26336;DHT22;14047;50.936;4.654;2023-08-21T14:20:39;30.10;99.90
26336;DHT22;14047;50.936;4.654;2023-08-21T14:23:05;30.30;99.90
26336;DHT22;14047;50.936;4.654;2023-08-21T14:25:32;29.80;99.90
26336;DHT22;14047;50.936;4.654;2023-08-21T14:27:58;29.90;99.90
26336;DHT22;14047;50.936;4.654;2023-08-21T14:30:24;29.90;99.90
26336;DHT22;14047;50.936;4.654;2023-08-21T14:32:50;30.00;99.90
26336;DHT22;14047;50.936;4.654;2023-08-21T14:35:16;30.30;99.90
26336;DHT22;14047;50.936;4.654;2023-08-21T14:37:42;30.50;99.90
26336;DHT22;14047;50.936;4.654;2023-08-21T14:40:08;30.70;99.90
26336;DHT22;14047;50.936;4.654;2023-08-21T14:42:36;30.40;99.90
26336;DHT22;14047;50.936;4.654;2023-08-21T14:45:02;30.30;99.90
26336;DHT22;14047;50.936;4.654;2023-08-21T14:47:29;29.80;99.90
26336;DHT22;14047;50.936;4.654;2023-08-21T14:49:55;30.00;99.90
26336;DHT22;14047;50.936;4.654;2023-08-21T14:52:21;30.70;99.90
26336;DHT22;14047;50.936;4.654;2023-08-21T14:54:50;31.80;99.90
26336;DHT22;14047;50.936;4.654;2023-08-21T14:57:17;32.30;99.90
26336;DHT22;14047;50.936;4.654;2023-08-21T14:59:43;32.80;99.90
26336;DHT22;14047;50.936;4.654;2023-08-21T15:02:09;33.30;99.90
26336;DHT22;14047;50.936;4.654;2023-08-21T15:04:35;34.20;99.90
26336;DHT22;14047;50.936;4.654;2023-08-21T15:07:02;35.00;99.90
26336;DHT22;14047;50.936;4.654;2023-08-21T15:09:28;34.60;99.90
26336;DHT22;14047;50.936;4.654;2023-08-21T15:11:54;33.00;99.90
26336;DHT22;14047;50.936;4.654;2023-08-21T15:14:20;32.50;99.90
26336;DHT22;14047;50.936;4.654;2023-08-21T15:16:46;32.90;99.90
26336;DHT22;14047;50.936;4.654;2023-08-21T15:19:12;33.50;99.90
26336;DHT22;14047;50.936;4.654;2023-08-21T15:21:38;34.80;99.90
26336;DHT22;14047;50.936;4.654;2023-08-21T15:24:05;35.70;99.90
26336;DHT22;14047;50.936;4.654;2023-08-21T15:26:32;36.40;97.00
26336;DHT22;14047;50.936;4.654;2023-08-21T15:29:00;36.80;94.00
26336;DHT22;14047;50.936;4.654;2023-08-21T15:31:26;36.80;92.80
26336;DHT22;14047;50.936;4.654;2023-08-21T15:33:52;36.80;92.50
26336;DHT22;14047;50.936;4.654;2023-08-21T15:36:18;36.20;92.60